Time;durP1;ratioP1;P1;durP2;ratioP2;P2;SDS_P1;SDS_P2;PMS_P1;PMS_P2;Temp;Humidity;BMP_temperature;BMP_pressure;BME280_temperature;BME280_humidity;BME280_pressure;Samples;Min_cycle;Max_cycle;Signal;HPM_P1;HPM_P2
2022/03/14 00:04:04;;;;;;;;;;;;;;;4.13;69.94;103070.75;5071565;28;19927;-84
2022/03/14 00:09:32;;;;;;;;;;;;;;;3.82;71.13;103068.06;5072082;28;19923;-82
2022/03/14 00:15:03;;;;;;;;;;;;;;;3.98;70.91;103063.06;5071840;28;20397;-82
2022/03/14 00:20:31;;;;;;;;;;;;;;;4.07;70.45;103063.22;5068924;28;19923;-84
2022/03/14 00:25:59;;;;;;;;;;;;;;;4.05;70.14;103064.69;5071731;28;19918;-83
2022/03/14 00:31:28;;;;;;;;;;;;;;;3.93;70.87;103071.91;5071608;28;19923;-83
2022/03/14 00:36:55;;;;;;;;;;;;;;;3.84;71.20;103065.69;5072465;28;20001;-82
2022/03/14 00:42:25;;;;;;;;;;;;;;;3.82;71.05;103074.91;5075459;28;19946;-84
2022/03/14 00:47:52;;;;;;;;;;;;;;;4.12;70.74;103075.00;5075790;28;19966;-84
2022/03/14 00:53:21;;;;;;;;;;;;;;;3.92;70.97;103072.69;5075712;28;20003;-84
2022/03/14 00:58:49;;;;;;;;;;;;;;;3.75;71.53;103080.09;5075251;28;19923;-85
2022/03/14 01:04:17;;;;;;;;;;;;;;;3.74;71.57;103084.31;5075480;28;19944;-85
2022/03/14 01:09:45;;;;;;;;;;;;;;;4.02;70.77;103088.53;5074948;28;20430;-86
2022/03/14 01:15:13;;;;;;;;;;;;;;;3.93;71.00;103083.94;5074880;28;20340;-85
2022/03/14 01:20:42;;;;;;;;;;;;;;;4.07;70.11;103092.56;5072370;28;20340;-86
2022/03/14 01:26:10;;;;;;;;;;;;;;;3.79;71.36;103095.22;5074643;28;19936;-85
2022/03/14 01:31:38;;;;;;;;;;;;;;;3.92;70.91;103098.53;5074951;28;20387;-83
2022/03/14 01:37:06;;;;;;;;;;;;;;;3.91;70.97;103109.59;5074503;28;19920;-81
2022/03/14 01:42:34;;;;;;;;;;;;;;;3.90;70.88;103115.50;5054787;28;20289;-84
2022/03/14 01:48:05;;;;;;;;;;;;;;;4.08;70.31;103119.34;5054784;28;19947;-84
2022/03/14 01:53:34;;;;;;;;;;;;;;;3.95;70.55;103119.56;5074257;28;19946;-84
2022/03/14 01:59:02;;;;;;;;;;;;;;;3.76;71.81;103120.69;5074556;28;19977;-84
2022/03/14 02:04:30;;;;;;;;;;;;;;;3.93;70.78;103130.47;5073997;28;20291;-84
2022/03/14 02:09:58;;;;;;;;;;;;;;;3.75;71.50;103139.56;5074454;28;20396;-84
2022/03/14 02:15:27;;;;;;;;;;;;;;;3.99;70.59;103138.94;5074601;28;19920;-84
2022/03/14 02:20:56;;;;;;;;;;;;;;;3.77;71.99;103145.81;5072310;28;19923;-85
2022/03/14 02:26:24;;;;;;;;;;;;;;;3.98;70.97;103150.00;5073534;28;20021;-84
2022/03/14 02:31:52;;;;;;;;;;;;;;;4.06;70.15;103154.44;5073895;28;19919;-85
2022/03/14 02:37:21;;;;;;;;;;;;;;;3.75;71.67;103166.31;5073842;28;19919;-85
2022/03/14 02:42:50;;;;;;;;;;;;;;;3.85;71.26;103157.97;5073689;28;19959;-84
2022/03/14 02:48:19;;;;;;;;;;;;;;;4.01;70.63;103165.91;5073617;28;19924;-83
2022/03/14 02:53:47;;;;;;;;;;;;;;;3.88;70.73;103163.53;5073220;28;20412;-83
2022/03/14 02:59:16;;;;;;;;;;;;;;;4.03;71.03;103167.94;5073819;28;19958;-83
2022/03/14 03:04:44;;;;;;;;;;;;;;;4.02;70.38;103184.19;5072694;28;19962;-80
2022/03/14 03:10:12;;;;;;;;;;;;;;;3.99;71.09;103185.47;5073293;28;19939;-81
2022/03/14 03:15:41;;;;;;;;;;;;;;;3.73;71.31;103178.13;5072525;28;19939;-82
2022/03/14 03:21:10;;;;;;;;;;;;;;;3.84;71.62;103177.72;5070517;28;20296;-82
2022/03/14 03:26:38;;;;;;;;;;;;;;;4.02;70.24;103181.59;5073002;28;19923;-84
2022/03/14 03:32:06;;;;;;;;;;;;;;;3.68;71.59;103181.78;5072960;28;19924;-83
2022/03/14 03:37:34;;;;;;;;;;;;;;;3.93;71.23;103195.09;5072919;28;20011;-84
2022/03/14 03:43:02;;;;;;;;;;;;;;;3.84;71.45;103198.41;5052733;28;19924;-83
2022/03/14 03:48:30;;;;;;;;;;;;;;;3.98;70.79;103209.47;5052611;28;19920;-84
2022/03/14 03:53:59;;;;;;;;;;;;;;;3.85;71.30;103209.66;5072537;28;19962;-83
2022/03/14 03:59:27;;;;;;;;;;;;;;;4.03;70.99;103216.13;5072500;28;19919;-82
2022/03/14 04:04:59;;;;;;;;;;;;;;;3.89;71.42;103217.06;5071977;28;20400;-82
2022/03/14 04:10:29;;;;;;;;;;;;;;;4.00;70.75;103219.28;5072378;28;19939;-83
2022/03/14 04:15:57;;;;;;;;;;;;;;;3.89;71.16;103229.97;5072117;28;19923;-83
2022/03/14 04:21:25;;;;;;;;;;;;;;;4.08;70.70;103238.28;5068939;28;20276;-81
2022/03/14 04:26:53;;;;;;;;;;;;;;;3.85;71.84;103248.44;5072255;28;20430;-83
2022/03/14 04:32:21;;;;;;;;;;;;;;;3.81;71.76;103248.81;5071724;28;19927;-83
2022/03/14 04:37:49;;;;;;;;;;;;;;;3.97;71.41;103244.75;5072147;28;20300;-84
2022/03/14 04:43:17;;;;;;;;;;;;;;;4.00;70.97;103251.94;5071625;28;19920;-83
2022/03/14 04:48:45;;;;;;;;;;;;;;;3.84;71.71;103265.63;5071722;28;20002;-84
2022/03/14 04:54:13;;;;;;;;;;;;;;;3.67;72.08;103265.25;5071929;28;20006;-83
2022/03/14 04:59:41;;;;;;;;;;;;;;;4.05;71.00;103262.13;5071887;28;20010;-82
2022/03/14 05:05:12;;;;;;;;;;;;;;;3.90;71.14;103270.63;5071812;28;19935;-82
2022/03/14 05:10:41;;;;;;;;;;;;;;;4.11;70.30;103285.22;5071811;28;19966;-81
2022/03/14 05:16:10;;;;;;;;;;;;;;;3.70;71.79;103285.34;5069642;28;20042;-82
2022/03/14 05:21:38;;;;;;;;;;;;;;;3.75;71.29;103294.63;5067610;28;19977;-81
2022/03/14 05:27:08;;;;;;;;;;;;;;;3.86;71.19;103300.34;5074258;28;19924;-82
2022/03/14 05:32:36;;;;;;;;;;;;;;;4.05;70.97;103302.56;5075061;28;19973;-81
2022/03/14 05:38:04;;;;;;;;;;;;;;;3.82;71.17;103313.63;5084709;28;20297;-81
2022/03/14 05:43:36;;;;;;;;;;;;;;;3.49;72.49;103320.72;5054823;28;19920;-82
2022/03/14 05:49:05;;;;;;;;;;;;;;;3.64;71.82;103320.06;5074784;28;20009;-84
2022/03/14 05:54:34;;;;;;;;;;;;;;;3.64;71.78;103325.22;5074415;28;19969;-84
2022/03/14 06:00:03;;;;;;;;;;;;;;;3.67;71.99;103332.44;5074688;28;19970;-82
2022/03/14 06:05:31;;;;;;;;;;;;;;;3.84;71.44;103334.50;5085538;28;19923;-82
2022/03/14 06:10:59;;;;;;;;;;;;;;;3.87;71.33;103342.59;5062598;28;19959;-82
2022/03/14 06:16:27;;;;;;;;;;;;;;;3.69;72.32;103351.63;5054383;28;20539;-83
2022/03/14 06:21:56;;;;;;;;;;;;;;;4.11;70.38;103356.66;5061520;28;19923;-84
2022/03/14 06:27:24;;;;;;;;;;;;;;;4.12;70.76;103371.47;5071608;28;19966;-85
2022/03/14 06:32:52;;;;;;;;;;;;;;;4.16;70.57;103384.94;5064730;28;19923;-83
2022/03/14 06:38:21;;;;;;;;;;;;;;;4.01;70.90;103386.59;5072028;28;19923;-85
2022/03/14 06:43:49;;;;;;;;;;;;;;;4.02;70.84;103390.09;5083141;28;19985;-84
2022/03/14 06:49:17;;;;;;;;;;;;;;;3.81;71.31;103390.97;5073670;28;19919;-84
2022/03/14 06:54:45;;;;;;;;;;;;;;;3.83;72.11;103395.63;5062232;28;20396;-83
2022/03/14 07:00:13;;;;;;;;;;;;;;;3.78;71.62;103393.19;5061900;28;19919;-85
2022/03/14 07:05:41;;;;;;;;;;;;;;;3.88;71.31;103396.19;5073185;28;19966;-84
2022/03/14 07:11:10;;;;;;;;;;;;;;;3.69;72.31;103399.81;5071126;28;19924;-80
2022/03/14 07:16:38;;;;;;;;;;;;;;;3.87;71.29;103402.06;5053270;28;20089;-80
2022/03/14 07:22:06;;;;;;;;;;;;;;;3.91;71.36;103401.72;5052422;28;19924;-81
2022/03/14 07:27:34;;;;;;;;;;;;;;;3.75;72.62;103408.34;5071802;28;19924;-81
2022/03/14 07:33:02;;;;;;;;;;;;;;;4.02;71.12;103419.50;5071975;28;19923;-81
2022/03/14 07:38:31;;;;;;;;;;;;;;;3.76;71.97;103417.91;5092876;28;20380;-80
2022/03/14 07:44:00;;;;;;;;;;;;;;;3.78;72.39;103419.94;5072713;28;19924;-81
2022/03/14 07:49:28;;;;;;;;;;;;;;;3.89;71.27;103426.44;5092222;28;20419;-79
2022/03/14 07:54:56;;;;;;;;;;;;;;;3.62;72.28;103426.53;5072481;28;19998;-80
2022/03/14 08:00:25;;;;;;;;;;;;;;;3.78;72.33;103431.97;5072559;28;20305;-81
2022/03/14 08:05:56;;;;;;;;;;;;;;;3.82;71.54;103437.69;5075990;28;20387;-81
2022/03/14 08:11:30;;;;;;;;;;;;;;;3.93;71.85;103428.69;5072406;28;19978;-80
2022/03/14 08:16:58;;;;;;;;;;;;;;;4.16;70.99;103428.00;5072329;28;20416;-82
2022/03/14 08:22:27;;;;;;;;;;;;;;;4.08;71.62;103433.16;5068965;28;20423;-82
2022/03/14 08:27:55;;;;;;;;;;;;;;;3.91;71.84;103434.41;5078085;28;19923;-82
2022/03/14 08:33:24;;;;;;;;;;;;;;;3.86;72.02;103433.84;5086709;28;19939;-80
2022/03/14 08:38:53;;;;;;;;;;;;;;;4.07;71.69;103440.72;5072249;28;20289;-80
2022/03/14 08:44:21;;;;;;;;;;;;;;;4.03;71.71;103442.00;5076430;28;20027;-80
2022/03/14 08:49:49;;;;;;;;;;;;;;;4.08;71.15;103442.56;5072072;28;19918;-82
2022/03/14 08:55:17;;;;;;;;;;;;;;;4.04;71.26;103435.16;5092297;28;19923;-81
2022/03/14 09:00:46;;;;;;;;;;;;;;;4.18;70.92;103439.47;5071711;28;19920;-81
2022/03/14 09:06:14;;;;;;;;;;;;;;;4.20;70.92;103435.41;5075390;28;19919;-81
2022/03/14 09:11:44;;;;;;;;;;;;;;;4.45;70.10;103437.66;5065310;28;19922;-82
2022/03/14 09:17:12;;;;;;;;;;;;;;;4.22;70.54;103439.09;5066963;28;19919;-82
2022/03/14 09:22:44;;;;;;;;;;;;;;;4.16;71.27;103434.09;5072732;28;19923;-82
2022/03/14 09:28:13;;;;;;;;;;;;;;;4.14;71.14;103440.75;5075339;28;19919;-82
2022/03/14 09:33:41;;;;;;;;;;;;;;;4.45;70.77;103439.31;5062736;28;20388;-82
2022/03/14 09:39:12;;;;;;;;;;;;;;;4.35;70.82;103444.09;5079073;28;20118;-82
2022/03/14 09:44:41;;;;;;;;;;;;;;;4.40;70.11;103443.94;5080740;28;19922;-82
2022/03/14 09:50:11;;;;;;;;;;;;;;;4.32;70.26;103451.47;5055003;28;19928;-82
2022/03/14 09:55:42;;;;;;;;;;;;;;;4.29;70.59;103458.13;5074867;28;19923;-82
2022/03/14 10:01:10;;;;;;;;;;;;;;;4.17;71.11;103448.88;5074991;28;19970;-82
2022/03/14 10:06:39;;;;;;;;;;;;;;;4.35;70.55;103450.19;5074602;28;20408;-82
2022/03/14 10:12:07;;;;;;;;;;;;;;;4.17;71.54;103460.88;5074011;28;20330;-82
2022/03/14 10:17:35;;;;;;;;;;;;;;;3.98;72.14;103456.03;5074331;28;19973;-82
2022/03/14 10:23:04;;;;;;;;;;;;;;;3.98;72.15;103456.03;5070334;28;20384;-82
2022/03/14 10:28:32;;;;;;;;;;;;;;;4.01;71.65;103458.06;5074281;28;20376;-81
2022/03/14 10:34:03;;;;;;;;;;;;;;;3.94;72.89;103456.41;5074046;28;19969;-82
2022/03/14 10:39:31;;;;;;;;;;;;;;;3.91;72.59;103462.84;5074015;28;20015;-82
2022/03/14 10:44:59;;;;;;;;;;;;;;;4.05;72.42;103457.72;5073794;28;20328;-82
2022/03/14 10:50:32;;;;;;;;;;;;;;;4.03;72.65;103459.19;5073730;28;19919;-82
2022/03/14 10:56:00;;;;;;;;;;;;;;;3.98;72.98;103450.88;5073800;28;20053;-81
2022/03/14 11:01:28;;;;;;;;;;;;;;;4.00;73.28;103451.03;5073615;28;19935;-80
2022/03/14 11:07:00;;;;;;;;;;;;;;;3.94;73.77;103445.13;5073416;28;20021;-82
2022/03/14 11:12:29;;;;;;;;;;;;;;;4.03;73.11;103447.19;5073480;28;19935;-81
2022/03/14 11:17:57;;;;;;;;;;;;;;;4.08;73.53;103446.09;5073342;28;20457;-81
2022/03/14 11:23:26;;;;;;;;;;;;;;;4.25;72.70;103447.22;5069026;28;19974;-82
2022/03/14 11:28:57;;;;;;;;;;;;;;;4.43;71.98;103426.19;5072954;28;19919;-82
2022/03/14 11:34:26;;;;;;;;;;;;;;;4.49;71.54;103421.75;5072850;28;19965;-82
2022/03/14 11:39:55;;;;;;;;;;;;;;;4.47;71.70;103415.47;5072869;28;20442;-81
2022/03/14 11:45:23;;;;;;;;;;;;;;;4.56;71.91;103414.75;5072756;28;19920;-83
2022/03/14 11:51:02;;;;;;;;;;;;;;;4.68;71.06;103411.03;5072695;28;19918;-80
2022/03/14 11:56:34;;;;;;;;;;;;;;;4.90;70.52;103406.75;5072620;28;19920;-80
2022/03/14 12:02:05;;;;;;;;;;;;;;;4.90;70.24;103409.34;5072494;28;20334;-82
2022/03/14 12:07:33;;;;;;;;;;;;;;;4.80;70.10;103399.53;5072466;28;19941;-82
2022/03/14 12:13:01;;;;;;;;;;;;;;;4.85;70.49;103406.22;5072372;28;20007;-82
2022/03/14 12:18:29;;;;;;;;;;;;;;;4.82;70.75;103399.75;5072396;28;20332;-81
2022/03/14 12:23:57;;;;;;;;;;;;;;;4.66;71.23;103404.75;5066977;28;19963;-82
2022/03/14 12:29:35;;;;;;;;;;;;;;;4.75;70.90;103400.69;5072572;28;19920;-82
2022/03/14 12:35:09;;;;;;;;;;;;;;;4.77;70.86;103401.78;5072308;28;19920;-82
2022/03/14 12:40:37;;;;;;;;;;;;;;;4.94;70.51;103403.78;5076192;28;19919;-82
2022/03/14 12:46:07;;;;;;;;;;;;;;;4.86;70.31;103405.47;5076146;28;19915;-81
2022/03/14 12:51:38;;;;;;;;;;;;;;;4.86;71.04;103414.91;5076032;28;19942;-83
2022/03/14 12:57:07;;;;;;;;;;;;;;;4.81;71.09;103414.34;5076162;28;19919;-82
2022/03/14 13:02:35;;;;;;;;;;;;;;;4.93;70.73;103414.88;5075753;28;19958;-82
2022/03/14 13:08:03;;;;;;;;;;;;;;;4.84;70.85;103424.16;5075608;28;20015;-82
2022/03/14 13:13:32;;;;;;;;;;;;;;;4.79;70.82;103423.59;5074938;28;19978;-82
2022/03/14 13:19:01;;;;;;;;;;;;;;;4.97;70.26;103416.19;5075510;28;19924;-83
2022/03/14 13:24:29;;;;;;;;;;;;;;;4.98;70.72;103421.56;5069573;28;19960;-82
2022/03/14 13:29:58;;;;;;;;;;;;;;;4.95;70.80;103420.25;5075270;28;19919;-81
2022/03/14 13:35:26;;;;;;;;;;;;;;;4.89;71.00;103415.28;5075228;28;19982;-81
2022/03/14 13:40:55;;;;;;;;;;;;;;;4.97;70.54;103416.19;5082556;28;19980;-81
2022/03/14 13:46:30;;;;;;;;;;;;;;;5.02;70.40;103416.00;5094935;28;20293;-81
2022/03/14 13:52:06;;;;;;;;;;;;;;;5.07;70.61;103420.03;5095209;28;19950;-82
2022/03/14 13:57:35;;;;;;;;;;;;;;;5.04;70.20;103413.59;5094959;28;19919;-81
2022/03/14 14:03:05;;;;;;;;;;;;;;;5.10;70.54;103414.28;5094810;28;19919;-82
2022/03/14 14:08:36;;;;;;;;;;;;;;;5.15;70.47;103418.38;5095088;28;19919;-84
2022/03/14 14:14:04;;;;;;;;;;;;;;;5.20;69.96;103419.81;5094911;28;19919;-84
2022/03/14 14:19:32;;;;;;;;;;;;;;;5.16;70.04;103412.44;5094924;28;19915;-83
2022/03/14 14:25:01;;;;;;;;;;;;;;;5.18;70.05;103413.53;5089535;28;19941;-84
2022/03/14 14:30:37;;;;;;;;;;;;;;;5.25;69.70;103416.13;5094508;28;19970;-85
2022/03/14 14:36:04;;;;;;;;;;;;;;;5.23;70.38;103417.63;5090020;28;19959;-85
2022/03/14 14:41:33;;;;;;;;;;;;;;;5.27;69.84;103419.81;5074107;28;20504;-86
2022/03/14 14:47:02;;;;;;;;;;;;;;;5.20;70.07;103425.00;5073851;28;19919;-84
2022/03/14 14:52:31;;;;;;;;;;;;;;;5.29;70.09;103435.53;5073757;28;19969;-84
2022/03/14 14:57:59;;;;;;;;;;;;;;;5.33;70.09;103429.97;5073669;28;19965;-84
2022/03/14 15:03:27;;;;;;;;;;;;;;;5.35;69.73;103440.53;5073798;28;19919;-86
2022/03/14 15:08:56;;;;;;;;;;;;;;;5.40;69.48;103445.50;5073462;28;19927;-83
2022/03/14 15:14:27;;;;;;;;;;;;;;;5.27;70.11;103445.72;5073340;28;19961;-81
2022/03/14 15:19:55;;;;;;;;;;;;;;;5.40;69.54;103455.88;5073155;28;19938;-83
2022/03/14 15:25:23;;;;;;;;;;;;;;;5.24;70.02;103458.31;5086424;28;19922;-84
2022/03/14 15:30:52;;;;;;;;;;;;;;;5.34;70.14;103457.75;5053005;28;19975;-82
2022/03/14 15:36:20;;;;;;;;;;;;;;;5.16;70.45;103473.69;5073031;28;20289;-84
2022/03/14 15:41:49;;;;;;;;;;;;;;;5.23;70.35;103474.59;5093087;28;19923;-84
2022/03/14 15:47:19;;;;;;;;;;;;;;;5.21;70.45;103481.28;5092984;28;19973;-84
2022/03/14 15:52:47;;;;;;;;;;;;;;;5.19;70.34;103477.56;5092858;28;20312;-82
2022/03/14 15:58:15;;;;;;;;;;;;;;;5.09;71.06;103483.31;5092471;28;20028;-87
2022/03/14 16:03:43;;;;;;;;;;;;;;;5.18;70.53;103472.19;5086054;28;19919;-85
2022/03/14 16:09:14;;;;;;;;;;;;;;;5.17;70.95;103484.25;5080807;28;19918;-85
2022/03/14 16:14:42;;;;;;;;;;;;;;;5.07;71.05;103489.97;5089537;28;20014;-85
2022/03/14 16:20:11;;;;;;;;;;;;;;;5.16;71.06;103490.16;5076978;28;19943;-84
2022/03/14 16:25:39;;;;;;;;;;;;;;;5.21;70.59;103494.22;5078289;28;19923;-84
2022/03/14 16:31:07;;;;;;;;;;;;;;;5.16;70.53;103489.22;5072261;28;19981;-84
2022/03/14 16:36:35;;;;;;;;;;;;;;;5.17;70.45;103499.78;5072126;28;19914;-84
2022/03/14 16:42:03;;;;;;;;;;;;;;;5.08;70.91;103499.63;5074746;28;19916;-84
2022/03/14 16:47:31;;;;;;;;;;;;;;;5.32;70.15;103494.59;5072290;28;19924;-85
2022/03/14 16:52:59;;;;;;;;;;;;;;;5.22;70.33;103509.00;5071591;28;19978;-82
2022/03/14 16:58:28;;;;;;;;;;;;;;;5.27;70.96;103505.31;5071950;28;20386;-81
2022/03/14 17:03:56;;;;;;;;;;;;;;;5.29;70.97;103511.63;5073936;28;19962;-84
2022/03/14 17:09:24;;;;;;;;;;;;;;;5.09;70.67;103513.47;5092066;28;19915;-84
2022/03/14 17:14:52;;;;;;;;;;;;;;;5.29;70.29;103516.81;5092099;28;20410;-82
2022/03/14 17:20:21;;;;;;;;;;;;;;;5.23;70.77;103531.59;5071814;28;19919;-82
2022/03/14 17:25:50;;;;;;;;;;;;;;;5.42;70.23;103529.56;5073335;28;19927;-84
2022/03/14 17:31:20;;;;;;;;;;;;;;;5.34;70.04;103529.38;5075500;28;19965;-82
2022/03/14 17:36:48;;;;;;;;;;;;;;;5.30;70.70;103526.41;5075169;28;20380;-83
2022/03/14 17:42:19;;;;;;;;;;;;;;;5.35;70.24;103528.63;5095256;28;19919;-83
2022/03/14 17:47:48;;;;;;;;;;;;;;;5.38;70.21;103523.81;5095426;28;19919;-84
2022/03/14 17:53:16;;;;;;;;;;;;;;;5.28;70.38;103525.28;5095145;28;19919;-83
2022/03/14 17:58:45;;;;;;;;;;;;;;;5.33;70.40;103531.03;5089481;28;19924;-85
2022/03/14 18:04:13;;;;;;;;;;;;;;;5.26;71.12;103523.28;5094749;28;19919;-81
2022/03/14 18:09:41;;;;;;;;;;;;;;;5.41;70.33;103527.69;5094809;28;19967;-82
2022/03/14 18:15:10;;;;;;;;;;;;;;;5.41;70.35;103538.06;5094740;28;19922;-82
2022/03/14 18:20:39;;;;;;;;;;;;;;;5.40;70.51;103549.19;5094549;28;19919;-83
2022/03/14 18:26:07;;;;;;;;;;;;;;;5.46;70.50;103541.19;5078316;28;20321;-82
2022/03/14 18:31:35;;;;;;;;;;;;;;;5.44;70.16;103538.44;5072341;28;19919;-82
2022/03/14 18:37:05;;;;;;;;;;;;;;;5.53;70.00;103532.50;5092712;28;20277;-82
2022/03/14 18:42:35;;;;;;;;;;;;;;;5.45;70.56;103542.84;5094121;28;19915;-81
2022/03/14 18:48:03;;;;;;;;;;;;;;;5.44;70.62;103545.25;5094070;28;19939;-82
2022/03/14 18:53:31;;;;;;;;;;;;;;;5.42;70.73;103550.28;5085771;28;19962;-85
2022/03/14 18:58:59;;;;;;;;;;;;;;;5.41;70.56;103553.59;5085020;28;20005;-82
2022/03/14 19:04:28;;;;;;;;;;;;;;;5.49;70.36;103550.25;5086691;28;19973;-81
2022/03/14 19:09:56;;;;;;;;;;;;;;;5.44;70.39;103553.97;5082978;28;19923;-84
2022/03/14 19:15:25;;;;;;;;;;;;;;;5.43;70.48;103559.91;5082396;28;19969;-84
2022/03/14 19:20:53;;;;;;;;;;;;;;;5.33;71.29;103572.47;5086310;28;19923;-84
2022/03/14 19:26:21;;;;;;;;;;;;;;;5.39;71.01;103573.22;5077031;28;19955;-81
2022/03/14 19:31:50;;;;;;;;;;;;;;;5.32;70.75;103572.31;5077732;28;20304;-83
2022/03/14 19:37:19;;;;;;;;;;;;;;;5.47;70.72;103572.47;5092113;28;19923;-82
2022/03/14 19:42:49;;;;;;;;;;;;;;;5.40;70.75;103566.41;5086472;28;20419;-87
2022/03/14 19:48:20;;;;;;;;;;;;;;;5.45;70.90;103575.63;5091899;28;20454;-86
2022/03/14 19:53:48;;;;;;;;;;;;;;;5.52;70.47;103575.63;5060261;28;20009;-86
2022/03/14 19:59:17;;;;;;;;;;;;;;;5.48;70.58;103579.53;5073094;28;20003;-84
2022/03/14 20:04:45;;;;;;;;;;;;;;;5.57;70.28;103571.91;5056660;28;19985;-82
2022/03/14 20:10:15;;;;;;;;;;;;;;;5.59;69.89;103567.84;5091788;28;19923;-82
2022/03/14 20:15:44;;;;;;;;;;;;;;;5.58;70.15;103573.75;5088342;28;19938;-81
2022/03/14 20:21:12;;;;;;;;;;;;;;;5.56;70.20;103575.25;5087685;28;20051;-82
2022/03/14 20:26:43;;;;;;;;;;;;;;;5.61;69.71;103580.97;5071182;28;19942;-81
2022/03/14 20:32:11;;;;;;;;;;;;;;;5.58;70.27;103584.13;5084681;28;20475;-83
2022/03/14 20:37:39;;;;;;;;;;;;;;;5.59;70.02;103577.25;5085417;28;19965;-81
2022/03/14 20:43:08;;;;;;;;;;;;;;;5.57;69.81;103574.50;5075040;28;20021;-81
2022/03/14 20:48:36;;;;;;;;;;;;;;;5.63;69.69;103576.88;5080475;28;19923;-82
2022/03/14 20:54:04;;;;;;;;;;;;;;;5.60;69.90;103571.34;5083161;28;19938;-81
2022/03/14 20:59:33;;;;;;;;;;;;;;;5.54;70.01;103579.31;5086093;28;19920;-83
2022/03/14 21:05:01;;;;;;;;;;;;;;;5.60;69.88;103571.34;5090444;28;19927;-84
2022/03/14 21:10:29;;;;;;;;;;;;;;;5.59;69.73;103569.50;5090497;28;19918;-84
2022/03/14 21:16:00;;;;;;;;;;;;;;;5.57;70.02;103568.41;5095882;28;19919;-83
2022/03/14 21:21:28;;;;;;;;;;;;;;;5.52;70.32;103567.84;5084807;28;19966;-83
2022/03/14 21:27:01;;;;;;;;;;;;;;;5.54;70.21;103560.25;5052835;28;20254;-85
2022/03/14 21:32:29;;;;;;;;;;;;;;;5.47;70.50;103567.28;5069485;28;19962;-84
2022/03/14 21:37:58;;;;;;;;;;;;;;;5.54;70.15;103570.63;5083702;28;19919;-85
2022/03/14 21:43:26;;;;;;;;;;;;;;;5.50;70.27;103558.94;5086902;28;19935;-84
2022/03/14 21:48:55;;;;;;;;;;;;;;;5.37;70.68;103569.53;5064536;28;19916;-83
2022/03/14 21:54:25;;;;;;;;;;;;;;;5.39;70.41;103569.72;5079246;28;20284;-83
2022/03/14 21:59:53;;;;;;;;;;;;;;;5.45;70.20;103562.69;5085239;28;19966;-82
2022/03/14 22:05:21;;;;;;;;;;;;;;;5.42;70.63;103564.88;5073157;28;19974;-83
2022/03/14 22:10:50;;;;;;;;;;;;;;;5.46;70.76;103557.69;5080630;28;20400;-82
2022/03/14 22:16:20;;;;;;;;;;;;;;;5.45;70.41;103554.91;5082612;28;20419;-83
2022/03/14 22:21:48;;;;;;;;;;;;;;;5.48;70.58;103556.19;5075663;28;19923;-82
2022/03/14 22:27:16;;;;;;;;;;;;;;;5.54;70.48;103563.75;5070472;28;19924;-81
2022/03/14 22:32:45;;;;;;;;;;;;;;;5.48;70.14;103561.38;5074993;28;19920;-82
2022/03/14 22:38:13;;;;;;;;;;;;;;;5.44;70.73;103563.41;5074036;28;20339;-82
2022/03/14 22:43:41;;;;;;;;;;;;;;;5.29;70.77;103559.91;5073852;28;20347;-82
2022/03/14 22:49:09;;;;;;;;;;;;;;;5.42;70.65;103552.88;5073803;28;19919;-82
2022/03/14 22:54:37;;;;;;;;;;;;;;;5.38;70.37;103555.84;5090012;28;19923;-82
2022/03/14 23:00:06;;;;;;;;;;;;;;;5.44;70.52;103559.16;5083905;28;19974;-82
2022/03/14 23:05:34;;;;;;;;;;;;;;;5.30;70.93;103559.19;5087212;28;19924;-81
2022/03/14 23:16:55;;;;;;;;;;;;;;;5.44;70.17;103556.56;5092363;28;20400;-82
2022/03/14 23:22:23;;;;;;;;;;;;;;;5.28;70.57;103558.97;5075063;28;19990;-82
2022/03/14 23:27:52;;;;;;;;;;;;;;;5.21;70.70;103548.63;5085917;28;19954;-81
2022/03/14 23:33:21;;;;;;;;;;;;;;;5.35;70.49;103557.13;5073669;28;19919;-80
2022/03/14 23:38:49;;;;;;;;;;;;;;;5.39;70.76;103559.34;5065341;28;19982;-82
2022/03/14 23:44:18;;;;;;;;;;;;;;;5.36;70.99;103564.19;5066134;28;19919;-82
2022/03/14 23:49:46;;;;;;;;;;;;;;;5.30;70.98;103561.78;5087946;28;19923;-82
2022/03/14 23:55:15;;;;;;;;;;;;;;;5.27;70.76;103558.78;5092160;28;20347;-83
